Time,TemperatureF,DewpointF,PressureIn,WindDirection,WindDirectionDegrees,WindSpeedMPH,WindSpeedGustMPH,Humidity,HourlyPrecipIn,Conditions,Clouds,dailyrainin,SolarRadiationWatts/m^2,SoftwareType,DateUTC
2013-05-24 00:00:00,66.8,53.8,30.01,NNE,23,2.0,2.0,63,0.00,,,0.00,0,Wunderground v.1.15,2013-05-24 04:00:00,
2013-05-24 00:10:00,66.4,53.0,30.01,NNE,22,3.0,3.0,62,0.00,,,0.00,0,Wunderground v.1.15,2013-05-24 04:10:00,
2013-05-24 00:20:00,66.4,53.0,30.01,NNE,22,4.0,13.0,62,0.00,,,0.00,0,Wunderground v.1.15,2013-05-24 04:20:00,
2013-05-24 00:30:00,66.1,53.1,30.02,North,9,4.0,4.0,63,0.00,,,0.00,0,Wunderground v.1.15,2013-05-24 04:30:00,
2013-05-24 00:40:00,65.8,53.3,30.02,NNW,347,2.0,2.0,64,0.00,,,0.00,0,Wunderground v.1.15,2013-05-24 04:40:00,
2013-05-24 00:50:00,65.5,53.4,30.02,North,355,3.0,3.0,65,0.00,,,0.00,0,Wunderground v.1.15,2013-05-24 04:50:00,
2013-05-24 01:00:00,65.2,53.6,30.03,NNW,336,3.0,5.0,66,0.00,,,0.00,0,Wunderground v.1.15,2013-05-24 05:00:00,
2013-05-24 01:10:00,65.2,53.1,30.03,North,355,5.0,5.0,65,0.00,,,0.00,0,Wunderground v.1.15,2013-05-24 05:10:00,
2013-05-24 01:20:00,65.0,52.9,30.03,NNW,335,4.0,12.0,65,0.00,,,0.00,0,Wunderground v.1.15,2013-05-24 05:20:00,
2013-05-24 01:30:00,64.8,53.2,30.04,NNE,17,4.0,12.0,66,0.00,,,0.00,0,Wunderground v.1.15,2013-05-24 05:30:00,
2013-05-24 01:40:00,64.5,53.3,30.03,North,360,3.0,6.0,67,0.00,,,0.00,0,Wunderground v.1.15,2013-05-24 05:40:00,
2013-05-24 01:50:00,64.0,53.2,30.03,NNE,30,2.0,2.0,68,0.00,,,0.00,0,Wunderground v.1.15,2013-05-24 05:50:00,
2013-05-24 02:00:00,63.9,53.1,30.02,North,360,3.0,3.0,68,0.00,,,0.00,0,Wunderground v.1.15,2013-05-24 06:00:00,
2013-05-24 02:10:00,63.7,53.3,30.02,NNE,24,3.0,3.0,69,0.00,,,0.00,0,Wunderground v.1.15,2013-05-24 06:10:00,
2013-05-24 02:20:00,63.7,53.3,30.02,North,349,3.0,13.0,69,0.00,,,0.00,0,Wunderground v.1.15,2013-05-24 06:20:00,
2013-05-24 02:30:00,63.5,53.1,30.02,NNW,329,2.0,2.0,69,0.00,,,0.00,0,Wunderground v.1.15,2013-05-24 06:30:00,
2013-05-24 02:40:00,63.4,53.4,30.03,North,355,1.0,1.0,70,0.00,,,0.00,0,Wunderground v.1.15,2013-05-24 06:40:00,
2013-05-24 02:50:00,63.1,53.5,30.03,NNE,23,0.0,1.0,71,0.00,,,0.00,0,Wunderground v.1.15,2013-05-24 06:50:00,
2013-05-24 03:00:00,62.9,53.4,30.03,NNE,13,3.0,3.0,71,0.00,,,0.00,0,Wunderground v.1.15,2013-05-24 07:00:00,
2013-05-24 03:10:00,63.1,53.5,30.03,NNW,342,1.0,8.0,71,0.00,,,0.00,0,Wunderground v.1.15,2013-05-24 07:10:00,
2013-05-24 03:20:00,62.7,53.5,30.03,NNW,342,0.0,8.0,72,0.00,,,0.00,0,Wunderground v.1.15,2013-05-24 07:20:00,
2013-05-24 03:30:00,62.4,53.6,30.03,NNW,342,0.0,8.0,73,0.00,,,0.00,0,Wunderground v.1.15,2013-05-24 07:30:00,
2013-05-24 03:40:00,61.5,53.9,30.04,NNW,342,0.0,0.0,76,0.00,,,0.00,0,Wunderground v.1.15,2013-05-24 07:40:00,
2013-05-24 03:50:00,60.9,53.6,30.04,NNW,342,0.0,0.0,77,0.00,,,0.00,0,Wunderground v.1.15,2013-05-24 07:50:00,
2013-05-24 04:00:00,60.5,53.6,30.04,NNW,342,0.0,0.0,78,0.00,,,0.00,0,Wunderground v.1.15,2013-05-24 08:00:00,
2013-05-24 04:10:00,60.1,53.9,30.05,NNW,342,0.0,8.0,80,0.00,,,0.00,0,Wunderground v.1.15,2013-05-24 08:10:00,
2013-05-24 04:20:00,60.1,53.9,30.05,NNE,19,0.0,8.0,80,0.00,,,0.00,0,Wunderground v.1.15,2013-05-24 08:20:00,
2013-05-24 04:30:00,60.4,53.5,30.04,NNE,18,0.0,8.0,78,0.00,,,0.00,0,Wunderground v.1.15,2013-05-24 08:30:00,
2013-05-24 04:40:00,60.2,53.7,30.04,NNE,18,0.0,0.0,79,0.00,,,0.00,0,Wunderground v.1.15,2013-05-24 08:40:00,
2013-05-24 04:50:00,59.9,53.7,30.04,NNE,18,0.0,0.0,80,0.00,,,0.00,0,Wunderground v.1.15,2013-05-24 08:50:00,
2013-05-24 05:00:00,59.9,53.7,30.04,NE,40,0.0,1.0,80,0.00,,,0.00,0,Wunderground v.1.15,2013-05-24 09:00:00,
2013-05-24 05:10:00,60.5,53.6,30.05,North,350,2.0,2.0,78,0.00,,,0.00,0,Wunderground v.1.15,2013-05-24 09:10:00,
2013-05-24 05:20:00,61.3,53.7,30.05,NNE,26,2.0,2.0,76,0.00,,,0.00,0,Wunderground v.1.15,2013-05-24 09:20:00,
2013-05-24 05:30:00,61.5,53.9,30.05,NNW,339,1.0,1.0,76,0.00,,,0.00,0,Wunderground v.1.15,2013-05-24 09:30:00,
2013-05-24 05:40:00,61.2,53.9,30.05,NNW,347,1.0,2.0,77,0.00,,,0.00,0,Wunderground v.1.15,2013-05-24 09:40:00,
2013-05-24 05:50:00,61.2,53.6,30.05,North,351,3.0,6.0,76,0.00,,,0.00,0,Wunderground v.1.15,2013-05-24 09:50:00,
2013-05-24 06:00:00,61.3,53.7,30.06,North,350,3.0,5.0,76,0.00,,,0.00,0,Wunderground v.1.15,2013-05-24 10:00:00,
2013-05-24 06:10:00,61.2,53.6,30.06,NNE,15,3.0,8.0,76,0.00,,,0.00,0,Wunderground v.1.15,2013-05-24 10:10:00,
2013-05-24 06:20:00,61.0,53.7,30.06,NNE,13,3.0,3.0,77,0.00,,,0.00,0,Wunderground v.1.15,2013-05-24 10:20:00,
2013-05-24 06:30:00,60.9,53.6,30.07,NNW,348,0.0,8.0,77,0.00,,,0.00,0,Wunderground v.1.15,2013-05-24 10:30:00,
2013-05-24 06:40:00,60.5,53.6,30.07,SW,235,0.0,0.0,78,0.00,,,0.00,5,Wunderground v.1.15,2013-05-24 10:40:00,
2013-05-24 06:50:00,60.7,53.4,30.07,North,360,2.0,2.0,77,0.00,,,0.00,9,Wunderground v.1.15,2013-05-24 10:50:00,
2013-05-24 07:00:00,60.9,53.3,30.08,North,5,3.0,3.0,76,0.00,,,0.00,12,Wunderground v.1.15,2013-05-24 11:00:00,
2013-05-24 07:10:00,61.2,53.2,30.09,NNW,344,5.0,11.0,75,0.00,,,0.00,14,Wunderground v.1.15,2013-05-24 11:10:00,
2013-05-24 07:20:00,61.3,53.3,30.09,NNE,12,2.0,2.0,75,0.00,,,0.00,16,Wunderground v.1.15,2013-05-24 11:20:00,
2013-05-24 07:30:00,61.3,53.3,30.09,NNE,13,2.0,11.0,75,0.00,,,0.00,19,Wunderground v.1.15,2013-05-24 11:30:00,
2013-05-24 07:40:00,61.3,53.3,30.10,North,11,2.0,2.0,75,0.00,,,0.00,21,Wunderground v.1.15,2013-05-24 11:40:00,
2013-05-24 07:50:00,61.5,53.5,30.10,NNE,17,0.0,0.0,75,0.00,,,0.00,25,Wunderground v.1.15,2013-05-24 11:50:00,
2013-05-24 08:00:00,61.8,53.8,30.12,North,11,1.0,1.0,75,0.00,,,0.00,39,Wunderground v.1.15,2013-05-24 12:00:00,
2013-05-24 08:10:00,62.1,53.0,30.12,North,5,4.0,4.0,72,0.00,,,0.00,28,Wunderground v.1.15,2013-05-24 12:10:00,
2013-05-24 08:20:00,62.3,52.4,30.12,NW,322,4.0,4.0,70,0.00,,,0.00,26,Wunderground v.1.15,2013-05-24 12:20:00,
2013-05-24 08:30:00,62.6,51.9,30.13,NNE,20,4.0,12.0,68,0.00,,,0.00,44,Wunderground v.1.15,2013-05-24 12:30:00,
2013-05-24 08:40:00,62.4,50.9,30.13,NE,49,5.0,8.0,66,0.00,,,0.00,35,Wunderground v.1.15,2013-05-24 12:40:00,
2013-05-24 08:50:00,62.0,50.1,30.13,North,9,5.0,5.0,65,0.00,,,0.00,62,Wunderground v.1.15,2013-05-24 12:50:00,
2013-05-24 09:00:00,62.1,50.2,30.14,NNE,30,4.0,12.0,65,0.00,,,0.00,40,Wunderground v.1.15,2013-05-24 13:00:00,
2013-05-24 09:10:00,61.3,49.0,30.15,NNE,16,6.0,12.0,64,0.00,,,0.00,35,Wunderground v.1.15,2013-05-24 13:10:00,
2013-05-24 09:20:00,61.6,48.9,30.15,NE,40,5.0,5.0,63,0.00,,,0.00,39,Wunderground v.1.15,2013-05-24 13:20:00,
2013-05-24 09:30:00,62.1,47.1,30.16,NE,40,7.0,7.0,58,0.00,,,0.00,47,Wunderground v.1.15,2013-05-24 13:30:00,
2013-05-24 09:40:00,62.7,47.7,30.17,NNE,13,4.0,4.0,58,0.00,,,0.00,69,Wunderground v.1.15,2013-05-24 13:40:00,
2013-05-24 09:50:00,63.1,47.1,30.17,NNE,24,4.0,4.0,56,0.00,,,0.00,40,Wunderground v.1.15,2013-05-24 13:50:00,
2013-05-24 10:00:00,63.1,48.1,30.18,NNE,20,5.0,5.0,58,0.00,,,0.00,46,Wunderground v.1.15,2013-05-24 14:00:00,
2013-05-24 10:10:00,63.4,48.8,30.18,NE,36,5.0,5.0,59,0.00,,,0.00,69,Wunderground v.1.15,2013-05-24 14:10:00,
2013-05-24 10:20:00,64.2,48.2,30.18,NE,34,4.0,16.0,56,0.00,,,0.00,90,Wunderground v.1.15,2013-05-24 14:20:00,
2013-05-24 10:30:00,63.5,48.0,30.19,NNE,12,6.0,6.0,57,0.00,,,0.00,102,Wunderground v.1.15,2013-05-24 14:30:00,
2013-05-24 10:40:00,63.1,48.1,30.19,NNE,19,4.0,4.0,58,0.00,,,0.00,69,Wunderground v.1.15,2013-05-24 14:40:00,
2013-05-24 10:50:00,63.5,46.1,30.19,NE,39,5.0,12.0,53,0.00,,,0.00,53,Wunderground v.1.15,2013-05-24 14:50:00,
2013-05-24 11:00:00,63.7,45.7,30.20,NE,44,5.0,5.0,52,0.00,,,0.00,56,Wunderground v.1.15,2013-05-24 15:00:00,
2013-05-24 11:10:00,64.0,47.5,30.20,NNW,342,5.0,17.0,55,0.00,,,0.00,56,Wunderground v.1.15,2013-05-24 15:10:00,
2013-05-24 11:20:00,64.5,46.5,30.20,NNE,28,6.0,17.0,52,0.00,,,0.00,56,Wunderground v.1.15,2013-05-24 15:20:00,
2013-05-24 11:30:00,64.5,47.0,30.20,NE,40,5.0,5.0,53,0.00,,,0.00,56,Wunderground v.1.15,2013-05-24 15:30:00,
2013-05-24 11:40:00,64.7,47.7,30.21,NE,55,4.0,4.0,54,0.00,,,0.00,67,Wunderground v.1.15,2013-05-24 15:40:00,
2013-05-24 11:50:00,65.6,47.0,30.21,NE,40,3.0,4.0,51,0.00,,,0.00,84,Wunderground v.1.15,2013-05-24 15:50:00,
2013-05-24 12:00:00,66.1,48.5,30.21,NNE,28,3.0,3.0,53,0.00,,,0.00,701,Wunderground v.1.15,2013-05-24 16:00:00,
2013-05-24 12:10:00,66.0,45.7,30.22,NNE,30,3.0,3.0,48,0.00,,,0.00,923,Wunderground v.1.15,2013-05-24 16:10:00,
2013-05-24 12:20:00,66.3,45.5,30.22,NNE,24,2.0,2.0,47,0.00,,,0.00,939,Wunderground v.1.15,2013-05-24 16:20:00,
2013-05-24 12:30:00,66.0,45.7,30.22,NNE,19,4.0,14.0,48,0.00,,,0.00,951,Wunderground v.1.15,2013-05-24 16:30:00,
2013-05-24 12:40:00,66.1,44.7,30.22,NNE,24,5.0,6.0,46,0.00,,,0.00,965,Wunderground v.1.15,2013-05-24 16:40:00,
2013-05-24 12:50:00,66.4,47.2,30.22,NNE,21,3.0,5.0,50,0.00,,,0.00,972,Wunderground v.1.15,2013-05-24 16:50:00,
2013-05-24 13:00:00,67.1,46.7,30.21,NNE,26,3.0,3.0,48,0.00,,,0.00,979,Wunderground v.1.15,2013-05-24 17:00:00,
2013-05-24 13:10:00,66.9,47.1,30.21,NNE,20,2.0,13.0,49,0.00,,,0.00,981,Wunderground v.1.15,2013-05-24 17:10:00,
2013-05-24 13:20:00,67.4,48.1,30.21,South,184,1.0,13.0,50,0.00,,,0.00,988,Wunderground v.1.15,2013-05-24 17:20:00,
2013-05-24 13:30:00,67.4,47.0,30.22,NE,48,2.0,13.0,48,0.00,,,0.00,981,Wunderground v.1.15,2013-05-24 17:30:00,
2013-05-24 13:40:00,67.4,46.5,30.21,NNE,26,1.0,4.0,47,0.00,,,0.00,983,Wunderground v.1.15,2013-05-24 17:40:00,
2013-05-24 13:50:00,67.3,47.5,30.21,ENE,65,2.0,2.0,49,0.00,,,0.00,684,Wunderground v.1.15,2013-05-24 17:50:00,
2013-05-24 14:00:00,67.8,46.8,30.21,South,171,1.0,1.0,47,0.00,,,0.00,77,Wunderground v.1.15,2013-05-24 18:00:00,
2013-05-24 14:10:00,67.9,45.8,30.21,North,5,1.0,1.0,45,0.00,,,0.00,142,Wunderground v.1.15,2013-05-24 18:10:00,
2013-05-24 14:21:00,68.3,44.9,30.21,NE,34,1.0,1.0,43,0.00,,,0.00,107,Wunderground v.1.15,2013-05-24 18:21:00,
2013-05-24 14:30:00,68.8,45.4,30.21,NE,51,1.0,11.0,43,0.00,,,0.00,199,Wunderground v.1.15,2013-05-24 18:30:00,
2013-05-24 14:40:00,69.1,46.3,30.21,SSE,154,0.0,2.0,44,0.00,,,0.00,316,Wunderground v.1.15,2013-05-24 18:40:00,
2013-05-24 14:50:00,69.9,45.1,30.21,NNW,331,1.0,1.0,41,0.00,,,0.00,448,Wunderground v.1.15,2013-05-24 18:50:00,
2013-05-24 15:00:00,69.1,44.4,30.21,NNE,26,1.0,1.0,41,0.00,,,0.00,939,Wunderground v.1.15,2013-05-24 19:00:00,
2013-05-24 15:10:00,69.3,45.2,30.21,NNW,339,0.0,11.0,42,0.00,,,0.00,930,Wunderground v.1.15,2013-05-24 19:10:00,
2013-05-24 15:20:00,70.1,47.2,30.21,NNW,348,0.0,11.0,44,0.00,,,0.00,918,Wunderground v.1.15,2013-05-24 19:20:00,
2013-05-24 15:30:00,70.9,45.4,30.21,NE,38,1.0,11.0,40,0.00,,,0.00,902,Wunderground v.1.15,2013-05-24 19:30:00,
2013-05-24 15:40:00,71.6,46.0,30.20,North,9,1.0,1.0,40,0.00,,,0.00,888,Wunderground v.1.15,2013-05-24 19:40:00,
2013-05-24 15:50:00,72.0,45.0,30.20,North,350,1.0,1.0,38,0.00,,,0.00,868,Wunderground v.1.15,2013-05-24 19:50:00,
2013-05-24 16:00:00,72.0,47.6,30.20,NNE,26,1.0,4.0,42,0.00,,,0.00,849,Wunderground v.1.15,2013-05-24 20:00:00,
2013-05-24 16:10:00,72.3,45.3,30.20,NNE,23,2.0,2.0,38,0.00,,,0.00,824,Wunderground v.1.15,2013-05-24 20:10:00,
2013-05-24 16:20:00,72.8,46.4,30.20,NNE,30,1.0,12.0,39,0.00,,,0.00,800,Wunderground v.1.15,2013-05-24 20:20:00,
2013-05-24 16:30:00,72.8,45.7,30.20,NNE,29,1.0,12.0,38,0.00,,,0.00,773,Wunderground v.1.15,2013-05-24 20:30:00,
2013-05-24 16:40:00,73.3,44.0,30.20,North,355,2.0,2.0,35,0.00,,,0.00,745,Wunderground v.1.15,2013-05-24 20:40:00,
2013-05-24 16:50:00,73.5,47.7,30.20,NNE,18,2.0,2.0,40,0.00,,,0.00,722,Wunderground v.1.15,2013-05-24 20:50:00,
2013-05-24 17:00:00,72.8,45.7,30.20,NNE,16,1.0,1.0,38,0.00,,,0.00,698,Wunderground v.1.15,2013-05-24 21:00:00,
2013-05-24 17:10:00,73.0,45.9,30.20,NNE,24,2.0,2.0,38,0.00,,,0.00,664,Wunderground v.1.15,2013-05-24 21:10:00,
2013-05-24 17:20:00,73.2,43.1,30.20,NE,38,2.0,9.0,34,0.00,,,0.00,631,Wunderground v.1.15,2013-05-24 21:20:00,
2013-05-24 17:30:00,72.8,43.5,30.20,NNE,23,2.0,2.0,35,0.00,,,0.00,603,Wunderground v.1.15,2013-05-24 21:30:00,
2013-05-24 17:40:00,73.0,47.2,30.20,NE,42,1.0,1.0,40,0.00,,,0.00,573,Wunderground v.1.15,2013-05-24 21:40:00,
2013-05-24 17:50:00,73.7,47.2,30.20,NNE,26,2.0,2.0,39,0.00,,,0.00,538,Wunderground v.1.15,2013-05-24 21:50:00,
2013-05-24 18:00:00,73.3,48.2,30.20,North,355,1.0,3.0,41,0.00,,,0.00,508,Wunderground v.1.15,2013-05-24 22:00:00,
2013-05-24 18:10:00,73.5,44.2,30.19,NNE,20,3.0,10.0,35,0.00,,,0.00,478,Wunderground v.1.15,2013-05-24 22:10:00,
2013-05-24 18:20:00,73.3,45.4,30.19,NNE,27,2.0,2.0,37,0.00,,,0.00,439,Wunderground v.1.15,2013-05-24 22:20:00,
2013-05-24 18:30:00,73.3,40.8,30.19,NE,44,2.0,10.0,31,0.00,,,0.00,411,Wunderground v.1.15,2013-05-24 22:30:00,
2013-05-24 18:40:00,72.8,40.4,30.19,NNE,28,4.0,4.0,31,0.00,,,0.00,380,Wunderground v.1.15,2013-05-24 22:40:00,
2013-05-24 18:50:00,73.0,41.4,30.19,NNE,13,3.0,4.0,32,0.00,,,0.00,339,Wunderground v.1.15,2013-05-24 22:50:00,
2013-05-24 19:00:00,72.7,39.5,30.19,NE,53,2.0,2.0,30,0.00,,,0.00,308,Wunderground v.1.15,2013-05-24 23:00:00,
2013-05-24 19:10:00,72.7,37.7,30.19,NNE,22,2.0,9.0,28,0.00,,,0.00,274,Wunderground v.1.15,2013-05-24 23:10:00,
2013-05-24 19:20:00,72.3,42.3,30.19,NNW,341,2.0,2.0,34,0.00,,,0.00,236,Wunderground v.1.15,2013-05-24 23:20:00,
2013-05-24 19:30:00,71.8,37.8,30.19,NNE,23,2.0,9.0,29,0.00,,,0.00,195,Wunderground v.1.15,2013-05-24 23:30:00,
2013-05-24 19:40:00,71.3,40.7,30.20,NNE,21,2.0,2.0,33,0.00,,,0.00,54,Wunderground v.1.15,2013-05-24 23:40:00,
2013-05-24 19:50:00,70.4,44.9,30.20,NE,36,3.0,3.0,40,0.00,,,0.00,39,Wunderground v.1.15,2013-05-24 23:50:00,
2013-05-24 20:00:00,69.8,45.0,30.20,NNW,344,3.0,3.0,41,0.00,,,0.00,30,Wunderground v.1.15,2013-05-25 00:00:00,
2013-05-24 20:10:00,68.9,45.5,30.20,NE,34,3.0,3.0,43,0.00,,,0.00,23,Wunderground v.1.15,2013-05-25 00:10:00,
2013-05-24 20:20:00,68.4,45.6,30.20,North,360,3.0,10.0,44,0.00,,,0.00,16,Wunderground v.1.15,2013-05-25 00:20:00,
2013-05-24 20:30:00,67.9,45.8,30.21,NNE,30,4.0,10.0,45,0.00,,,0.00,11,Wunderground v.1.15,2013-05-25 00:30:00,
2013-05-24 20:40:00,67.3,46.4,30.21,NNE,24,2.0,2.0,47,0.00,,,0.00,5,Wunderground v.1.15,2013-05-25 00:40:00,
2013-05-24 20:50:00,66.6,45.7,30.21,NNE,21,2.0,2.0,47,0.00,,,0.00,0,Wunderground v.1.15,2013-05-25 00:50:00,
2013-05-24 21:00:00,66.1,45.8,30.21,North,5,2.0,4.0,48,0.00,,,0.00,0,Wunderground v.1.15,2013-05-25 01:00:00,
2013-05-24 21:10:00,65.6,45.9,30.21,NNE,12,1.0,1.0,49,0.00,,,0.00,0,Wunderground v.1.15,2013-05-25 01:10:00,
2013-05-24 21:20:00,65.2,46.1,30.21,NNE,12,1.0,1.0,50,0.00,,,0.00,0,Wunderground v.1.15,2013-05-25 01:20:00,
2013-05-24 21:30:00,64.8,46.2,30.21,NNE,16,0.0,9.0,51,0.00,,,0.00,0,Wunderground v.1.15,2013-05-25 01:30:00,
2013-05-24 21:40:00,64.5,47.0,30.22,NNE,16,0.0,1.0,53,0.00,,,0.00,0,Wunderground v.1.15,2013-05-25 01:40:00,
2013-05-24 22:00:00,63.7,47.2,30.22,NNE,26,1.0,1.0,55,0.00,,,0.00,0,Wunderground v.1.15,2013-05-25 02:00:00,
2013-05-24 22:10:00,63.5,47.0,30.22,NNE,22,1.0,1.0,55,0.00,,,0.00,0,Wunderground v.1.15,2013-05-25 02:10:00,
2013-05-24 22:20:00,62.9,47.4,30.22,NNE,12,0.0,7.0,57,0.00,,,0.00,0,Wunderground v.1.15,2013-05-25 02:20:00,
2013-05-24 22:30:00,62.4,46.5,30.22,NNE,32,0.0,7.0,56,0.00,,,0.00,0,Wunderground v.1.15,2013-05-25 02:30:00,
2013-05-24 22:40:00,62.1,46.7,30.22,NNE,32,0.0,0.0,57,0.00,,,0.00,0,Wunderground v.1.15,2013-05-25 02:40:00,
2013-05-24 22:50:00,61.5,47.0,30.22,NNE,32,0.0,0.0,59,0.00,,,0.00,0,Wunderground v.1.15,2013-05-25 02:50:00,
2013-05-24 23:00:00,61.0,46.6,30.22,NNE,32,0.0,1.0,59,0.00,,,0.00,0,Wunderground v.1.15,2013-05-25 03:00:00,
2013-05-24 23:10:00,60.5,46.5,30.24,NNE,32,0.0,5.0,60,0.00,,,0.00,0,Wunderground v.1.15,2013-05-25 03:10:00,
2013-05-24 23:20:00,59.9,46.8,30.24,NNE,32,0.0,5.0,62,0.00,,,0.00,0,Wunderground v.1.15,2013-05-25 03:20:00,
2013-05-24 23:30:00,59.8,46.7,30.24,NNE,32,0.0,5.0,62,0.00,,,0.00,0,Wunderground v.1.15,2013-05-25 03:30:00,
2013-05-24 23:40:00,59.2,47.0,30.24,NNE,32,0.0,0.0,64,0.00,,,0.00,0,Wunderground v.1.15,2013-05-25 03:40:00,
2013-05-24 23:50:00,58.4,47.5,30.24,NNE,32,0.0,1.0,67,0.00,,,0.00,0,Wunderground v.1.15,2013-05-25 03:50:00,